sensor_id;sensor_type;location;lat;lon;timestamp;pressure;altitude;pressure_sealevel;temperature;humidity
68634;BME280;55625;47.072;22.192;2023-02-20T00:01:30;100276.03;;;3.23;90.31
68634;BME280;55625;47.072;22.192;2023-02-20T00:03:56;100259.16;;;3.16;89.72
68634;BME280;55625;47.072;22.192;2023-02-20T00:06:22;100272.00;;;3.17;90.73
68634;BME280;55625;47.072;22.192;2023-02-20T00:08:48;100269.59;;;3.16;89.60
68634;BME280;55625;47.072;22.192;2023-02-20T00:11:14;100281.19;;;3.14;89.36
68634;BME280;55625;47.072;22.192;2023-02-20T00:13:45;100283.19;;;3.14;88.50
68634;BME280;55625;47.072;22.192;2023-02-20T00:16:11;100293.59;;;3.13;87.47
68634;BME280;55625;47.072;22.192;2023-02-20T00:18:37;100291.19;;;3.11;85.76
68634;BME280;55625;47.072;22.192;2023-02-20T00:21:05;100301.22;;;3.13;84.64
68634;BME280;55625;47.072;22.192;2023-02-20T00:23:32;100306.41;;;3.10;86.20
68634;BME280;55625;47.072;22.192;2023-02-20T00:25:58;100309.22;;;3.10;85.91
68634;BME280;55625;47.072;22.192;2023-02-20T00:28:24;100321.22;;;3.11;85.62
68634;BME280;55625;47.072;22.192;2023-02-20T00:30:51;100331.25;;;3.12;84.80
68634;BME280;55625;47.072;22.192;2023-02-20T00:33:16;100327.25;;;3.13;83.80
68634;BME280;55625;47.072;22.192;2023-02-20T00:35:42;100324.00;;;3.07;81.07
68634;BME280;55625;47.072;22.192;2023-02-20T00:38:08;100329.22;;;3.09;81.45
68634;BME280;55625;47.072;22.192;2023-02-20T00:40:34;100342.06;;;3.10;82.46
68634;BME280;55625;47.072;22.192;2023-02-20T00:43:00;100354.78;;;3.04;82.65
68634;BME280;55625;47.072;22.192;2023-02-20T00:45:26;100346.81;;;3.06;81.56
68634;BME280;55625;47.072;22.192;2023-02-20T00:47:52;100355.22;;;3.06;82.67
68634;BME280;55625;47.072;22.192;2023-02-20T00:50:18;100353.59;;;3.05;82.17
68634;BME280;55625;47.072;22.192;2023-02-20T00:52:44;100357.56;;;3.00;82.81
68634;BME280;55625;47.072;22.192;2023-02-20T00:55:11;100346.31;;;2.97;82.40
68634;BME280;55625;47.072;22.192;2023-02-20T00:57:37;100343.09;;;2.95;81.83
68634;BME280;55625;47.072;22.192;2023-02-20T01:03:45;100365.97;;;3.00;82.44
68634;BME280;55625;47.072;22.192;2023-02-20T01:06:11;100364.69;;;2.91;80.88
68634;BME280;55625;47.072;22.192;2023-02-20T01:08:36;100364.34;;;2.96;82.81
68634;BME280;55625;47.072;22.192;2023-02-20T01:11:02;100374.72;;;2.92;82.54
68634;BME280;55625;47.072;22.192;2023-02-20T01:13:28;100368.69;;;2.90;82.71
68634;BME280;55625;47.072;22.192;2023-02-20T01:15:54;100370.31;;;2.91;83.52
68634;BME280;55625;47.072;22.192;2023-02-20T01:18:20;100365.47;;;2.88;83.61
68634;BME280;55625;47.072;22.192;2023-02-20T01:20:46;100367.44;;;2.84;81.93
68634;BME280;55625;47.072;22.192;2023-02-20T01:23:12;100358.25;;;2.87;83.44
68634;BME280;55625;47.072;22.192;2023-02-20T01:25:38;100366.28;;;2.88;80.51
68634;BME280;55625;47.072;22.192;2023-02-20T01:28:04;100363.88;;;2.87;79.59
68634;BME280;55625;47.072;22.192;2023-02-20T01:30:30;100354.69;;;2.90;79.28
68634;BME280;55625;47.072;22.192;2023-02-20T01:32:56;100360.69;;;2.92;80.84
68634;BME280;55625;47.072;22.192;2023-02-20T01:35:21;100354.69;;;2.90;80.88
68634;BME280;55625;47.072;22.192;2023-02-20T01:37:47;100343.88;;;2.92;81.16
68634;BME280;55625;47.072;22.192;2023-02-20T01:40:20;100346.28;;;2.90;82.01
68634;BME280;55625;47.072;22.192;2023-02-20T01:42:47;100345.84;;;2.88;78.13
68634;BME280;55625;47.072;22.192;2023-02-20T01:47:53;100348.22;;;2.82;80.14
68634;BME280;55625;47.072;22.192;2023-02-20T01:50:41;100344.56;;;2.78;81.25
68634;BME280;55625;47.072;22.192;2023-02-20T01:53:17;100342.91;;;2.73;81.79
68634;BME280;55625;47.072;22.192;2023-02-20T01:58:23;100345.31;;;2.75;80.12
68634;BME280;55625;47.072;22.192;2023-02-20T02:00:50;100347.66;;;2.69;79.27
68634;BME280;55625;47.072;22.192;2023-02-20T02:03:22;100366.06;;;2.67;79.28
68634;BME280;55625;47.072;22.192;2023-02-20T02:05:57;100364.09;;;2.71;77.61
68634;BME280;55625;47.072;22.192;2023-02-20T02:08:25;100365.66;;;2.68;78.52
68634;BME280;55625;47.072;22.192;2023-02-20T02:11:06;100354.84;;;2.67;77.37
68634;BME280;55625;47.072;22.192;2023-02-20T02:13:35;100353.28;;;2.69;75.17
68634;BME280;55625;47.072;22.192;2023-02-20T02:23:04;100354.47;;;2.68;77.78
68634;BME280;55625;47.072;22.192;2023-02-20T02:29:41;100370.81;;;2.63;77.35
68634;BME280;55625;47.072;22.192;2023-02-20T02:35:30;100376.47;;;2.66;78.83
68634;BME280;55625;47.072;22.192;2023-02-20T02:40:56;100378.81;;;2.61;79.04
68634;BME280;55625;47.072;22.192;2023-02-20T02:43:53;100380.41;;;2.62;78.70
68634;BME280;55625;47.072;22.192;2023-02-20T02:46:41;100376.00;;;2.61;79.47
68634;BME280;55625;47.072;22.192;2023-02-20T02:52:11;100393.59;;;2.58;80.02
68634;BME280;55625;47.072;22.192;2023-02-20T02:54:58;100401.19;;;2.57;79.93
68634;BME280;55625;47.072;22.192;2023-02-20T02:57:26;100402.78;;;2.58;80.90
68634;BME280;55625;47.072;22.192;2023-02-20T03:05:46;100423.25;;;2.62;81.87
68634;BME280;55625;47.072;22.192;2023-02-20T03:08:28;100426.06;;;2.62;82.62
68634;BME280;55625;47.072;22.192;2023-02-20T03:11:08;100430.03;;;2.61;82.83
68634;BME280;55625;47.072;22.192;2023-02-20T03:14:08;100427.63;;;2.60;82.67
68634;BME280;55625;47.072;22.192;2023-02-20T03:17:41;100432.81;;;2.58;80.70
68634;BME280;55625;47.072;22.192;2023-02-20T03:20:12;100430.78;;;2.55;82.53
68634;BME280;55625;47.072;22.192;2023-02-20T03:22:50;100423.56;;;2.54;80.10
68634;BME280;55625;47.072;22.192;2023-02-20T03:25:33;100428.75;;;2.52;80.76
68634;BME280;55625;47.072;22.192;2023-02-20T03:28:16;100426.75;;;2.52;81.52
68634;BME280;55625;47.072;22.192;2023-02-20T03:31:07;100439.13;;;2.51;77.98
68634;BME280;55625;47.072;22.192;2023-02-20T03:36:32;100447.53;;;2.51;78.49
68634;BME280;55625;47.072;22.192;2023-02-20T03:39:30;100448.34;;;2.52;77.89
68634;BME280;55625;47.072;22.192;2023-02-20T03:42:18;100455.56;;;2.53;79.12
68634;BME280;55625;47.072;22.192;2023-02-20T03:45:05;100440.38;;;2.54;76.41
68634;BME280;55625;47.072;22.192;2023-02-20T03:47:36;100443.56;;;2.52;77.79
68634;BME280;55625;47.072;22.192;2023-02-20T03:50:06;100460.69;;;2.47;79.46
68634;BME280;55625;47.072;22.192;2023-02-20T03:52:51;100460.19;;;2.41;79.26
68634;BME280;55625;47.072;22.192;2023-02-20T03:55:17;100464.16;;;2.37;78.69
68634;BME280;55625;47.072;22.192;2023-02-20T03:57:51;100469.75;;;2.37;78.25
68634;BME280;55625;47.072;22.192;2023-02-20T04:00:22;100480.09;;;2.33;76.00
68634;BME280;55625;47.072;22.192;2023-02-20T04:02:53;100471.28;;;2.31;77.14
68634;BME280;55625;47.072;22.192;2023-02-20T04:05:24;100477.69;;;2.31;78.54
68634;BME280;55625;47.072;22.192;2023-02-20T04:08:09;100481.28;;;2.32;78.89
68634;BME280;55625;47.072;22.192;2023-02-20T04:13:16;100494.47;;;2.31;77.88
68634;BME280;55625;47.072;22.192;2023-02-20T04:15:43;100486.09;;;2.31;76.94
68634;BME280;55625;47.072;22.192;2023-02-20T04:18:12;100490.44;;;2.29;77.03
68634;BME280;55625;47.072;22.192;2023-02-20T04:20:40;100491.22;;;2.26;79.10
68634;BME280;55625;47.072;22.192;2023-02-20T04:23:14;100495.56;;;2.23;79.54
68634;BME280;55625;47.072;22.192;2023-02-20T04:26:03;100481.47;;;2.16;80.30
68634;BME280;55625;47.072;22.192;2023-02-20T04:28:30;100476.69;;;2.16;81.77
68634;BME280;55625;47.072;22.192;2023-02-20T04:30:56;100481.88;;;2.14;82.37
68634;BME280;55625;47.072;22.192;2023-02-20T04:33:23;100483.78;;;2.10;81.16
68634;BME280;55625;47.072;22.192;2023-02-20T04:35:49;100483.72;;;2.07;82.54
68634;BME280;55625;47.072;22.192;2023-02-20T04:38:15;100488.53;;;2.06;82.17
68634;BME280;55625;47.072;22.192;2023-02-20T04:40:41;100490.88;;;2.04;82.21
68634;BME280;55625;47.072;22.192;2023-02-20T04:43:06;100492.44;;;2.02;82.10
68634;BME280;55625;47.072;22.192;2023-02-20T04:45:32;100494.81;;;2.00;82.62
68634;BME280;55625;47.072;22.192;2023-02-20T04:47:58;100499.63;;;1.99;82.54
68634;BME280;55625;47.072;22.192;2023-02-20T04:50:30;100485.19;;;1.97;83.59
68634;BME280;55625;47.072;22.192;2023-02-20T04:52:57;100492.34;;;1.95;82.00
68634;BME280;55625;47.072;22.192;2023-02-20T04:55:23;100503.44;;;1.88;83.46
68634;BME280;55625;47.072;22.192;2023-02-20T04:57:50;100521.72;;;1.81;84.02
68634;BME280;55625;47.072;22.192;2023-02-20T05:00:19;100516.44;;;1.76;83.27
68634;BME280;55625;47.072;22.192;2023-02-20T05:02:47;100524.72;;;1.69;83.43
68634;BME280;55625;47.072;22.192;2023-02-20T05:05:20;100525.09;;;1.68;84.10
68634;BME280;55625;47.072;22.192;2023-02-20T05:07:47;100529.38;;;1.62;83.45
68634;BME280;55625;47.072;22.192;2023-02-20T05:10:15;100523.38;;;1.60;84.23
68634;BME280;55625;47.072;22.192;2023-02-20T05:12:42;100530.06;;;1.55;83.90
68634;BME280;55625;47.072;22.192;2023-02-20T05:15:08;100528.38;;;1.50;85.05
68634;BME280;55625;47.072;22.192;2023-02-20T05:17:34;100536.28;;;1.45;85.03
68634;BME280;55625;47.072;22.192;2023-02-20T05:20:00;100528.94;;;1.37;87.17
68634;BME280;55625;47.072;22.192;2023-02-20T05:22:26;100536.03;;;1.31;87.63
68634;BME280;55625;47.072;22.192;2023-02-20T05:24:51;100534.34;;;1.26;86.24
68634;BME280;55625;47.072;22.192;2023-02-20T05:27:20;100527.03;;;1.21;86.28
68634;BME280;55625;47.072;22.192;2023-02-20T05:29:53;100538.91;;;1.15;86.46
68634;BME280;55625;47.072;22.192;2023-02-20T05:32:21;100548.03;;;1.12;85.60
68634;BME280;55625;47.072;22.192;2023-02-20T05:34:47;100552.81;;;1.11;84.71
68634;BME280;55625;47.072;22.192;2023-02-20T05:37:16;100567.97;;;1.10;84.65
68634;BME280;55625;47.072;22.192;2023-02-20T05:39:42;100563.56;;;1.09;84.47
68634;BME280;55625;47.072;22.192;2023-02-20T05:42:08;100574.28;;;1.07;84.21
68634;BME280;55625;47.072;22.192;2023-02-20T05:44:34;100574.66;;;1.06;84.52
68634;BME280;55625;47.072;22.192;2023-02-20T05:47:01;100578.63;;;1.05;85.53
68634;BME280;55625;47.072;22.192;2023-02-20T05:49:27;100574.97;;;1.01;86.72
68634;BME280;55625;47.072;22.192;2023-02-20T05:51:56;100587.25;;;0.96;87.11
68634;BME280;55625;47.072;22.192;2023-02-20T05:54:22;100590.41;;;0.95;87.75
68634;BME280;55625;47.072;22.192;2023-02-20T05:56:51;100589.59;;;0.94;88.62
68634;BME280;55625;47.072;22.192;2023-02-20T05:59:21;100596.00;;;0.95;88.03
68634;BME280;55625;47.072;22.192;2023-02-20T06:01:48;100595.28;;;0.98;88.17
68634;BME280;55625;47.072;22.192;2023-02-20T06:04:18;100590.25;;;1.07;87.61
68634;BME280;55625;47.072;22.192;2023-02-20T06:06:43;100599.97;;;1.13;86.76
68634;BME280;55625;47.072;22.192;2023-02-20T06:09:11;100605.56;;;1.13;88.90
68634;BME280;55625;47.072;22.192;2023-02-20T06:11:46;100611.38;;;1.23;87.99
68634;BME280;55625;47.072;22.192;2023-02-20T06:14:14;100605.81;;;1.46;88.01
68634;BME280;55625;47.072;22.192;2023-02-20T06:16:40;100617.91;;;1.73;86.79
68634;BME280;55625;47.072;22.192;2023-02-20T06:19:06;100613.56;;;1.99;84.45
68634;BME280;55625;47.072;22.192;2023-02-20T06:21:32;100614.75;;;2.21;83.83
68634;BME280;55625;47.072;22.192;2023-02-20T06:24:00;100600.69;;;2.43;83.71
68634;BME280;55625;47.072;22.192;2023-02-20T06:26:26;100622.19;;;2.62;82.56
68634;BME280;55625;47.072;22.192;2023-02-20T06:28:53;100617.91;;;2.72;82.25
68634;BME280;55625;47.072;22.192;2023-02-20T06:31:26;100629.06;;;2.68;81.16
68634;BME280;55625;47.072;22.192;2023-02-20T06:33:53;100625.00;;;2.62;82.03
68634;BME280;55625;47.072;22.192;2023-02-20T06:36:27;100634.78;;;2.75;81.83
68634;BME280;55625;47.072;22.192;2023-02-20T06:38:53;100636.19;;;2.89;80.84
68634;BME280;55625;47.072;22.192;2023-02-20T06:41:19;100632.78;;;3.06;80.34
68634;BME280;55625;47.072;22.192;2023-02-20T06:43:45;100635.09;;;3.27;80.23
68634;BME280;55625;47.072;22.192;2023-02-20T06:46:11;100634.97;;;3.50;79.74
68634;BME280;55625;47.072;22.192;2023-02-20T06:48:51;100641.25;;;3.73;79.27
68634;BME280;55625;47.072;22.192;2023-02-20T06:51:20;100643.94;;;3.99;77.80
68634;BME280;55625;47.072;22.192;2023-02-20T06:53:47;100630.47;;;4.23;76.61
68634;BME280;55625;47.072;22.192;2023-02-20T06:56:17;100637.13;;;4.52;75.97
68634;BME280;55625;47.072;22.192;2023-02-20T06:58:50;100632.88;;;4.76;76.18
68634;BME280;55625;47.072;22.192;2023-02-20T07:01:18;100631.41;;;4.92;74.29
68634;BME280;55625;47.072;22.192;2023-02-20T07:03:48;100636.63;;;4.94;73.74
68634;BME280;55625;47.072;22.192;2023-02-20T07:06:15;100632.50;;;4.81;74.46
68634;BME280;55625;47.072;22.192;2023-02-20T07:08:41;100638.00;;;4.59;76.10
68634;BME280;55625;47.072;22.192;2023-02-20T07:11:07;100634.66;;;4.43;76.92
68634;BME280;55625;47.072;22.192;2023-02-20T07:13:34;100630.88;;;4.21;75.61
68634;BME280;55625;47.072;22.192;2023-02-20T07:16:00;100633.13;;;4.05;76.03
68634;BME280;55625;47.072;22.192;2023-02-20T07:18:26;100631.72;;;3.85;77.24
68634;BME280;55625;47.072;22.192;2023-02-20T07:20:54;100637.50;;;3.99;77.06
68634;BME280;55625;47.072;22.192;2023-02-20T07:23:21;100640.25;;;3.95;76.87
68634;BME280;55625;47.072;22.192;2023-02-20T07:25:47;100635.72;;;3.84;77.75
68634;BME280;55625;47.072;22.192;2023-02-20T07:28:15;100642.16;;;3.84;77.41
68634;BME280;55625;47.072;22.192;2023-02-20T07:30:42;100651.81;;;3.87;76.95
68634;BME280;55625;47.072;22.192;2023-02-20T07:33:08;100646.94;;;3.80;77.57
68634;BME280;55625;47.072;22.192;2023-02-20T07:35:34;100663.81;;;3.84;77.57
68634;BME280;55625;47.072;22.192;2023-02-20T07:38:00;100661.88;;;3.91;77.70
68634;BME280;55625;47.072;22.192;2023-02-20T07:40:26;100663.50;;;3.92;77.61
68634;BME280;55625;47.072;22.192;2023-02-20T07:42:52;100659.50;;;3.97;77.94
68634;BME280;55625;47.072;22.192;2023-02-20T07:45:17;100669.25;;;4.07;77.64
68634;BME280;55625;47.072;22.192;2023-02-20T07:47:43;100675.66;;;4.03;75.91
68634;BME280;55625;47.072;22.192;2023-02-20T07:50:10;100672.56;;;4.16;76.58
68634;BME280;55625;47.072;22.192;2023-02-20T07:52:36;100676.97;;;4.17;76.72
68634;BME280;55625;47.072;22.192;2023-02-20T07:55:01;100670.59;;;4.20;75.65
68634;BME280;55625;47.072;22.192;2023-02-20T07:57:30;100683.41;;;4.17;76.34
68634;BME280;55625;47.072;22.192;2023-02-20T07:59:57;100671.38;;;4.20;74.74
68634;BME280;55625;47.072;22.192;2023-02-20T08:02:23;100674.63;;;4.22;75.66
68634;BME280;55625;47.072;22.192;2023-02-20T08:04:49;100672.63;;;4.23;75.62
68634;BME280;55625;47.072;22.192;2023-02-20T08:07:14;100666.59;;;4.24;76.00
68634;BME280;55625;47.072;22.192;2023-02-20T08:09:40;100664.63;;;4.28;75.47
68634;BME280;55625;47.072;22.192;2023-02-20T08:12:06;100668.34;;;4.36;75.50
68634;BME280;55625;47.072;22.192;2023-02-20T08:14:32;100665.19;;;4.45;74.32
68634;BME280;55625;47.072;22.192;2023-02-20T08:16:58;100665.66;;;4.54;74.37
68634;BME280;55625;47.072;22.192;2023-02-20T08:19:24;100663.03;;;4.79;74.15
68634;BME280;55625;47.072;22.192;2023-02-20T08:21:50;100667.34;;;5.27;74.25
68634;BME280;55625;47.072;22.192;2023-02-20T08:24:16;100666.31;;;5.75;72.69
68634;BME280;55625;47.072;22.192;2023-02-20T08:26:46;100654.78;;;6.15;70.48
68634;BME280;55625;47.072;22.192;2023-02-20T08:29:14;100667.66;;;6.41;68.13
68634;BME280;55625;47.072;22.192;2023-02-20T08:31:40;100666.47;;;6.67;67.74
68634;BME280;55625;47.072;22.192;2023-02-20T08:34:06;100670.09;;;6.82;65.43
68634;BME280;55625;47.072;22.192;2023-02-20T08:36:32;100676.50;;;6.97;66.05
68634;BME280;55625;47.072;22.192;2023-02-20T08:38:59;100684.56;;;7.02;62.45
68634;BME280;55625;47.072;22.192;2023-02-20T08:41:25;100678.06;;;7.19;64.27
68634;BME280;55625;47.072;22.192;2023-02-20T08:43:51;100680.84;;;7.37;60.34
68634;BME280;55625;47.072;22.192;2023-02-20T08:46:17;100677.22;;;7.36;58.94
68634;BME280;55625;47.072;22.192;2023-02-20T08:48:43;100663.50;;;7.38;60.35
68634;BME280;55625;47.072;22.192;2023-02-20T08:51:10;100663.53;;;7.35;60.13
68634;BME280;55625;47.072;22.192;2023-02-20T08:53:37;100656.25;;;7.34;58.12
68634;BME280;55625;47.072;22.192;2023-02-20T08:56:05;100655.44;;;7.33;59.87
68634;BME280;55625;47.072;22.192;2023-02-20T08:58:31;100661.44;;;7.46;61.40
68634;BME280;55625;47.072;22.192;2023-02-20T09:00:57;100664.28;;;7.46;58.87
68634;BME280;55625;47.072;22.192;2023-02-20T09:03:23;100655.72;;;7.60;58.28
68634;BME280;55625;47.072;22.192;2023-02-20T09:05:50;100648.84;;;7.68;57.76
68634;BME280;55625;47.072;22.192;2023-02-20T09:08:16;100648.81;;;7.75;58.88
68634;BME280;55625;47.072;22.192;2023-02-20T09:10:42;100652.84;;;7.78;55.68
68634;BME280;55625;47.072;22.192;2023-02-20T09:13:08;100654.06;;;7.73;58.35
68634;BME280;55625;47.072;22.192;2023-02-20T09:15:34;100641.50;;;7.82;57.81
68634;BME280;55625;47.072;22.192;2023-02-20T09:18:06;100628.50;;;7.95;58.38
68634;BME280;55625;47.072;22.192;2023-02-20T09:20:34;100625.97;;;8.11;57.28
68634;BME280;55625;47.072;22.192;2023-02-20T09:23:02;100614.50;;;8.32;57.81
68634;BME280;55625;47.072;22.192;2023-02-20T09:25:28;100607.25;;;8.31;58.68
68634;BME280;55625;47.072;22.192;2023-02-20T09:27:54;100603.09;;;8.47;59.93
68634;BME280;55625;47.072;22.192;2023-02-20T09:30:20;100592.50;;;8.58;56.21
68634;BME280;55625;47.072;22.192;2023-02-20T09:32:47;100599.09;;;8.82;58.54
68634;BME280;55625;47.072;22.192;2023-02-20T09:35:29;100587.09;;;8.70;55.27
68634;BME280;55625;47.072;22.192;2023-02-20T09:37:56;100592.88;;;8.60;56.14
68634;BME280;55625;47.072;22.192;2023-02-20T09:40:28;100591.19;;;8.66;57.71
68634;BME280;55625;47.072;22.192;2023-02-20T09:46:04;100602.97;;;8.61;57.77
68634;BME280;55625;47.072;22.192;2023-02-20T09:49:14;100597.09;;;8.82;54.16
68634;BME280;55625;47.072;22.192;2023-02-20T09:51:51;100596.19;;;8.92;55.58
68634;BME280;55625;47.072;22.192;2023-02-20T09:54:39;100584.88;;;8.92;56.74
68634;BME280;55625;47.072;22.192;2023-02-20T09:57:22;100591.34;;;9.27;53.25
68634;BME280;55625;47.072;22.192;2023-02-20T10:00:03;100590.78;;;8.67;56.07
68634;BME280;55625;47.072;22.192;2023-02-20T10:02:36;100572.28;;;8.56;56.68
68634;BME280;55625;47.072;22.192;2023-02-20T10:05:26;100570.56;;;8.69;56.90
68634;BME280;55625;47.072;22.192;2023-02-20T10:07:52;100568.78;;;8.82;56.94
68634;BME280;55625;47.072;22.192;2023-02-20T10:16:49;100560.97;;;8.59;56.79
68634;BME280;55625;47.072;22.192;2023-02-20T10:25:07;100511.22;;;9.26;53.99
68634;BME280;55625;47.072;22.192;2023-02-20T10:30:34;100517.31;;;8.57;56.98
68634;BME280;55625;47.072;22.192;2023-02-20T10:33:42;100514.88;;;8.59;57.62
68634;BME280;55625;47.072;22.192;2023-02-20T10:37:07;100511.09;;;8.73;56.32
68634;BME280;55625;47.072;22.192;2023-02-20T10:39:17;100511.00;;;8.42;58.95
68634;BME280;55625;47.072;22.192;2023-02-20T10:50:04;100514.34;;;8.33;55.27
68634;BME280;55625;47.072;22.192;2023-02-20T10:52:56;100497.78;;;7.84;58.03
68634;BME280;55625;47.072;22.192;2023-02-20T10:55:48;100503.25;;;8.05;59.83
68634;BME280;55625;47.072;22.192;2023-02-20T10:58:27;100505.56;;;8.17;57.88
68634;BME280;55625;47.072;22.192;2023-02-20T11:01:01;100500.84;;;8.03;57.74
68634;BME280;55625;47.072;22.192;2023-02-20T11:06:17;100500.88;;;8.00;55.96
68634;BME280;55625;47.072;22.192;2023-02-20T11:08:44;100503.75;;;7.93;57.24
68634;BME280;55625;47.072;22.192;2023-02-20T11:11:42;100505.09;;;7.77;56.84
68634;BME280;55625;47.072;22.192;2023-02-20T11:14:45;100499.00;;;7.24;58.04
68634;BME280;55625;47.072;22.192;2023-02-20T11:17:18;100498.31;;;7.05;56.50
68634;BME280;55625;47.072;22.192;2023-02-20T11:19:50;100490.31;;;6.90;58.26
68634;BME280;55625;47.072;22.192;2023-02-20T11:22:24;100478.28;;;6.78;58.52
68634;BME280;55625;47.072;22.192;2023-02-20T11:30:44;100467.78;;;6.72;58.85
68634;BME280;55625;47.072;22.192;2023-02-20T11:33:23;100478.72;;;6.59;62.53
68634;BME280;55625;47.072;22.192;2023-02-20T11:35:58;100460.66;;;6.42;58.71
68634;BME280;55625;47.072;22.192;2023-02-20T11:38:35;100455.81;;;6.39;61.90
68634;BME280;55625;47.072;22.192;2023-02-20T11:41:37;100450.88;;;6.68;60.73
68634;BME280;55625;47.072;22.192;2023-02-20T11:44:19;100446.94;;;6.51;61.07
68634;BME280;55625;47.072;22.192;2023-02-20T11:46:47;100447.78;;;6.38;60.45
68634;BME280;55625;47.072;22.192;2023-02-20T11:49:27;100441.31;;;6.41;61.22
68634;BME280;55625;47.072;22.192;2023-02-20T11:52:29;100439.31;;;6.41;61.42
68634;BME280;55625;47.072;22.192;2023-02-20T11:55:20;100432.94;;;6.23;59.39
68634;BME280;55625;47.072;22.192;2023-02-20T11:57:47;100449.88;;;6.16;59.97
68634;BME280;55625;47.072;22.192;2023-02-20T12:00:45;100450.22;;;6.29;61.72
68634;BME280;55625;47.072;22.192;2023-02-20T12:03:17;100439.78;;;6.22;63.37
68634;BME280;55625;47.072;22.192;2023-02-20T12:05:45;100442.19;;;6.27;62.23
68634;BME280;55625;47.072;22.192;2023-02-20T12:08:55;100458.69;;;6.29;62.41
68634;BME280;55625;47.072;22.192;2023-02-20T12:11:25;100450.25;;;6.25;60.64
68634;BME280;55625;47.072;22.192;2023-02-20T12:13:53;100454.31;;;6.03;62.19
68634;BME280;55625;47.072;22.192;2023-02-20T12:22:49;100459.53;;;5.83;63.46
68634;BME280;55625;47.072;22.192;2023-02-20T12:25:20;100450.28;;;5.86;62.89
68634;BME280;55625;47.072;22.192;2023-02-20T12:28:16;100440.22;;;6.03;62.53
68634;BME280;55625;47.072;22.192;2023-02-20T12:43:13;100413.28;;;5.70;65.81
68634;BME280;55625;47.072;22.192;2023-02-20T12:57:02;100386.72;;;5.92;64.23
68634;BME280;55625;47.072;22.192;2023-02-20T12:59:52;100371.41;;;5.97;65.46
68634;BME280;55625;47.072;22.192;2023-02-20T13:05:03;100365.00;;;5.82;63.97
68634;BME280;55625;47.072;22.192;2023-02-20T13:07:53;100374.25;;;5.68;65.88
68634;BME280;55625;47.072;22.192;2023-02-20T13:10:29;100369.03;;;5.70;67.06
68634;BME280;55625;47.072;22.192;2023-02-20T13:12:56;100381.50;;;5.62;66.89
68634;BME280;55625;47.072;22.192;2023-02-20T13:18:41;100363.81;;;5.58;67.28
68634;BME280;55625;47.072;22.192;2023-02-20T13:21:18;100364.19;;;5.74;68.68
68634;BME280;55625;47.072;22.192;2023-02-20T13:23:45;100354.91;;;5.77;68.61
68634;BME280;55625;47.072;22.192;2023-02-20T13:26:53;100360.16;;;5.79;68.88
68634;BME280;55625;47.072;22.192;2023-02-20T13:29:27;100350.50;;;5.94;68.43
68634;BME280;55625;47.072;22.192;2023-02-20T13:34:42;100335.94;;;6.10;69.04
68634;BME280;55625;47.072;22.192;2023-02-20T13:45:43;100316.22;;;6.10;70.74
68634;BME280;55625;47.072;22.192;2023-02-20T13:48:38;100313.38;;;6.20;71.80
68634;BME280;55625;47.072;22.192;2023-02-20T13:53:52;100314.50;;;6.34;71.40
68634;BME280;55625;47.072;22.192;2023-02-20T13:56:28;100322.94;;;6.44;72.01
68634;BME280;55625;47.072;22.192;2023-02-20T13:58:58;100321.66;;;6.52;72.94
68634;BME280;55625;47.072;22.192;2023-02-20T14:01:24;100322.06;;;6.54;72.21
68634;BME280;55625;47.072;22.192;2023-02-20T14:04:04;100336.88;;;6.66;69.72
68634;BME280;55625;47.072;22.192;2023-02-20T14:06:30;100327.59;;;6.69;70.00
68634;BME280;55625;47.072;22.192;2023-02-20T14:09:12;100329.72;;;6.54;69.85
68634;BME280;55625;47.072;22.192;2023-02-20T14:11:41;100318.09;;;6.45;71.95
68634;BME280;55625;47.072;22.192;2023-02-20T14:14:29;100318.84;;;6.52;70.83
68634;BME280;55625;47.072;22.192;2023-02-20T14:17:18;100320.53;;;6.36;72.36
68634;BME280;55625;47.072;22.192;2023-02-20T14:19:51;100323.72;;;6.45;72.37
68634;BME280;55625;47.072;22.192;2023-02-20T14:22:29;100322.84;;;6.55;71.95
68634;BME280;55625;47.072;22.192;2023-02-20T14:25:22;100321.81;;;6.24;71.97
68634;BME280;55625;47.072;22.192;2023-02-20T14:27:48;100322.63;;;6.21;73.07
68634;BME280;55625;47.072;22.192;2023-02-20T14:30:22;100327.88;;;6.12;73.71
68634;BME280;55625;47.072;22.192;2023-02-20T14:32:54;100317.47;;;6.02;73.39
68634;BME280;55625;47.072;22.192;2023-02-20T14:35:42;100311.88;;;5.87;73.92
68634;BME280;55625;47.072;22.192;2023-02-20T14:40:48;100294.97;;;5.84;76.54
68634;BME280;55625;47.072;22.192;2023-02-20T14:43:20;100302.19;;;5.96;74.76
68634;BME280;55625;47.072;22.192;2023-02-20T14:46:07;100307.00;;;5.99;76.24
68634;BME280;55625;47.072;22.192;2023-02-20T14:48:39;100305.84;;;5.93;76.69
68634;BME280;55625;47.072;22.192;2023-02-20T14:51:22;100306.66;;;5.89;77.08
68634;BME280;55625;47.072;22.192;2023-02-20T14:54:02;100294.94;;;5.98;76.52
68634;BME280;55625;47.072;22.192;2023-02-20T14:56:35;100281.28;;;5.93;76.62
68634;BME280;55625;47.072;22.192;2023-02-20T14:59:28;100281.69;;;5.84;77.65
68634;BME280;55625;47.072;22.192;2023-02-20T15:05:08;100277.66;;;5.78;79.19
68634;BME280;55625;47.072;22.192;2023-02-20T15:07:37;100288.56;;;5.69;79.05
68634;BME280;55625;47.072;22.192;2023-02-20T15:10:31;100279.72;;;5.71;79.91
68634;BME280;55625;47.072;22.192;2023-02-20T15:13:07;100261.25;;;5.63;80.67
68634;BME280;55625;47.072;22.192;2023-02-20T15:15:37;100258.41;;;5.66;80.96
68634;BME280;55625;47.072;22.192;2023-02-20T15:18:11;100255.56;;;5.73;80.79
68634;BME280;55625;47.072;22.192;2023-02-20T15:20:44;100254.00;;;5.65;82.85
68634;BME280;55625;47.072;22.192;2023-02-20T15:23:30;100256.41;;;5.63;81.96
68634;BME280;55625;47.072;22.192;2023-02-20T15:25:57;100245.53;;;5.65;82.30
68634;BME280;55625;47.072;22.192;2023-02-20T15:28:29;100242.69;;;5.72;81.92